Time;durP1;ratioP1;P1;durP2;ratioP2;P2;SDS_P1;SDS_P2;PMS_P1;PMS_P2;Temp;Humidity;BMP_temperature;BMP_pressure;BME280_temperature;BME280_humidity;BME280_pressure;Samples;Min_cycle;Max_cycle;Signal;HPM_P1;HPM_P2
2021/11/04 00:02:09;;;;;;;;;;;;;;;5.84;100.00;100356.16;5071536;28;19970;-54
2021/11/04 00:04:36;;;;;;;;;;;;;;;5.86;100.00;100360.38;5072106;28;19924;-55
2021/11/04 00:07:05;;;;;;;;;;;;;;;5.84;100.00;100353.53;5072289;28;19951;-55
2021/11/04 00:09:32;;;;;;;;;;;;;;;5.79;100.00;100345.94;5072349;28;19924;-52
2021/11/04 00:11:59;;;;;;;;;;;;;;;5.72;100.00;100344.59;5073691;28;19932;-52
2021/11/04 00:14:25;;;;;;;;;;;;;;;5.68;100.00;100340.44;5075816;28;19928;-55
2021/11/04 00:16:52;;;;;;;;;;;;;;;5.73;100.00;100338.44;5075305;28;19925;-53
2021/11/04 00:19:19;;;;;;;;;;;;;;;5.74;100.00;100334.94;5072288;28;20405;-48
2021/11/04 00:21:45;;;;;;;;;;;;;;;5.65;100.00;100336.22;5072800;28;19970;-51
2021/11/04 00:24:12;;;;;;;;;;;;;;;5.53;100.00;100329.88;5075573;28;20009;-54
2021/11/04 00:26:38;;;;;;;;;;;;;;;5.49;100.00;100336.19;5072991;28;19929;-53
2021/11/04 00:29:05;;;;;;;;;;;;;;;5.56;100.00;100337.56;5072916;28;19928;-54
2021/11/04 00:31:32;;;;;;;;;;;;;;;5.59;100.00;100339.19;5075546;28;19928;-53
2021/11/04 00:33:58;;;;;;;;;;;;;;;5.65;100.00;100335.41;5075295;28;19997;-54
2021/11/04 00:36:25;;;;;;;;;;;;;;;5.59;100.00;100339.19;5073810;28;19970;-54
2021/11/04 00:38:51;;;;;;;;;;;;;;;5.62;100.00;100332.94;5073801;28;19928;-51
2021/11/04 00:41:18;;;;;;;;;;;;;;;5.57;100.00;100334.00;5072113;28;19962;-51
2021/11/04 00:43:45;;;;;;;;;;;;;;;5.62;100.00;100336.41;5073843;28;19928;-50
2021/11/04 00:46:12;;;;;;;;;;;;;;;5.64;100.00;100338.94;5075346;28;19948;-46
2021/11/04 00:48:38;;;;;;;;;;;;;;;5.55;100.00;100333.28;5075051;28;19971;-53
2021/11/04 00:51:05;;;;;;;;;;;;;;;5.40;100.00;100331.47;5073984;28;19925;-54
2021/11/04 00:53:32;;;;;;;;;;;;;;;5.21;100.00;100332.41;5073348;28;19928;-52
2021/11/04 00:56:00;;;;;;;;;;;;;;;5.29;100.00;100336.38;5072294;28;19935;-55
2021/11/04 00:58:27;;;;;;;;;;;;;;;5.36;100.00;100332.56;5074928;28;19924;-52
2021/11/04 01:00:54;;;;;;;;;;;;;;;5.17;100.00;100330.88;5073609;28;19924;-46
2021/11/04 01:03:21;;;;;;;;;;;;;;;5.28;100.00;100327.72;5069756;28;19924;-44
2021/11/04 01:05:48;;;;;;;;;;;;;;;5.29;100.00;100334.63;5073566;28;19928;-46
2021/11/04 01:08:15;;;;;;;;;;;;;;;5.38;100.00;100346.34;5074556;28;20422;-49
2021/11/04 01:10:42;;;;;;;;;;;;;;;5.39;100.00;100340.22;5073428;28;19974;-44
2021/11/04 01:13:09;;;;;;;;;;;;;;;5.40;100.00;100341.91;5073254;28;19951;-45
2021/11/04 01:15:35;;;;;;;;;;;;;;;5.45;100.00;100339.03;5072488;28;20304;-46
2021/11/04 01:18:02;;;;;;;;;;;;;;;5.36;100.00;100336.00;5070116;28;19950;-48
2021/11/04 01:20:29;;;;;;;;;;;;;;;5.37;100.00;100329.00;5072475;28;20398;-44
2021/11/04 01:22:55;;;;;;;;;;;;;;;5.42;100.00;100332.22;5072316;28;19929;-45
2021/11/04 01:25:22;;;;;;;;;;;;;;;5.42;100.00;100333.03;5072066;28;19999;-48
2021/11/04 01:27:49;;;;;;;;;;;;;;;5.36;100.00;100335.16;5038777;28;19932;-49
2021/11/04 01:30:15;;;;;;;;;;;;;;;5.40;100.00;100334.91;5051911;28;19979;-45
2021/11/04 01:32:42;;;;;;;;;;;;;;;5.40;100.00;100331.47;5050986;28;19924;-46
2021/11/04 01:35:09;;;;;;;;;;;;;;;5.28;100.00;100335.53;5049921;28;19964;-49
2021/11/04 01:37:36;;;;;;;;;;;;;;;5.12;100.00;100340.69;5035340;28;20257;-48
2021/11/04 01:40:03;;;;;;;;;;;;;;;5.02;100.00;100339.47;5051985;28;19925;-48
2021/11/04 01:42:30;;;;;;;;;;;;;;;5.09;100.00;100327.81;5050949;28;20380;-52
2021/11/04 01:44:57;;;;;;;;;;;;;;;5.11;100.00;100323.34;5036536;28;19955;-51
2021/11/04 01:47:23;;;;;;;;;;;;;;;5.13;100.00;100313.69;5041936;28;19925;-47
2021/11/04 01:49:51;;;;;;;;;;;;;;;5.14;100.00;100314.53;5050270;28;19925;-46
2021/11/04 01:52:17;;;;;;;;;;;;;;;5.13;100.00;100312.88;5037779;28;19979;-46
2021/11/04 01:54:44;;;;;;;;;;;;;;;5.18;100.00;100305.63;5033890;28;19929;-47
2021/11/04 01:57:11;;;;;;;;;;;;;;;5.17;100.00;100304.81;5033140;28;19932;-47
2021/11/04 01:59:38;;;;;;;;;;;;;;;5.15;100.00;100314.44;5047536;28;19994;-53
2021/11/04 02:02:05;;;;;;;;;;;;;;;4.93;100.00;100321.69;5044533;28;19940;-54
2021/11/04 02:04:41;;;;;;;;;;;;;;;4.89;100.00;100319.25;5036270;28;19925;-54
2021/11/04 02:07:09;;;;;;;;;;;;;;;5.01;100.00;100314.31;5047987;28;19948;-46
2021/11/04 02:09:36;;;;;;;;;;;;;;;4.89;100.00;100314.03;5051580;28;19925;-44
2021/11/04 02:12:08;;;;;;;;;;;;;;;4.89;100.00;100314.03;5041761;28;20292;-43
2021/11/04 02:14:44;;;;;;;;;;;;;;;4.81;100.00;100329.16;5050911;28;19971;-44
2021/11/04 02:17:12;;;;;;;;;;;;;;;4.84;100.00;100302.97;5056464;28;19932;-45
2021/11/04 02:19:47;;;;;;;;;;;;;;;4.79;100.00;100304.97;5053364;28;19932;-46
2021/11/04 02:22:26;;;;;;;;;;;;;;;4.75;100.00;100303.44;5053199;28;20375;-52
2021/11/04 02:25:08;;;;;;;;;;;;;;;4.84;100.00;100308.19;5053355;28;19925;-52
2021/11/04 02:27:36;;;;;;;;;;;;;;;4.73;100.00;100294.84;5053396;28;19954;-53
2021/11/04 02:30:02;;;;;;;;;;;;;;;4.77;100.00;100296.38;5053081;28;19932;-54
2021/11/04 02:32:29;;;;;;;;;;;;;;;4.71;100.00;100297.50;5051678;28;19933;-54
2021/11/04 02:34:56;;;;;;;;;;;;;;;4.83;100.00;100295.25;5048998;28;19929;-53
2021/11/04 02:37:23;;;;;;;;;;;;;;;4.90;100.00;100296.63;5067000;28;19925;-54
2021/11/04 02:39:49;;;;;;;;;;;;;;;4.90;100.00;100302.66;5068440;28;19924;-53
2021/11/04 02:42:16;;;;;;;;;;;;;;;5.01;100.00;100298.69;5068042;28;19932;-53
2021/11/04 02:44:43;;;;;;;;;;;;;;;5.07;100.00;100303.56;5052985;28;19932;-52
2021/11/04 02:47:09;;;;;;;;;;;;;;;5.10;100.00;100313.88;5064485;28;20020;-52
2021/11/04 02:49:36;;;;;;;;;;;;;;;5.02;100.00;100318.63;5051181;28;19971;-53
2021/11/04 02:52:03;;;;;;;;;;;;;;;5.02;100.00;100311.63;5052928;28;19931;-51
2021/11/04 02:54:30;;;;;;;;;;;;;;;4.99;100.00;100316.16;5068241;28;20296;-52
2021/11/04 02:56:57;;;;;;;;;;;;;;;5.01;100.00;100315.16;5051637;28;19925;-53
2021/11/04 02:59:24;;;;;;;;;;;;;;;4.99;100.00;100316.16;5052944;28;19924;-53
2021/11/04 03:01:53;;;;;;;;;;;;;;;5.01;100.00;100324.75;5052839;28;19929;-47
2021/11/04 03:04:20;;;;;;;;;;;;;;;5.04;100.00;100325.41;5051412;28;19929;-46
2021/11/04 03:06:47;;;;;;;;;;;;;;;5.04;100.00;100335.84;5050106;28;19924;-47
2021/11/04 03:09:14;;;;;;;;;;;;;;;4.98;100.00;100332.72;5067446;28;19932;-47
2021/11/04 03:11:41;;;;;;;;;;;;;;;5.01;100.00;100336.00;5052766;28;19925;-53
2021/11/04 03:14:07;;;;;;;;;;;;;;;5.02;100.00;100336.88;5052714;28;19974;-52
2021/11/04 03:16:38;;;;;;;;;;;;;;;4.99;100.00;100334.38;5052600;28;20454;-52
2021/11/04 03:19:08;;;;;;;;;;;;;;;5.04;100.00;100345.44;5051450;28;19974;-53
2021/11/04 03:21:37;;;;;;;;;;;;;;;5.04;100.00;100345.44;5065873;28;19928;-53
2021/11/04 03:24:04;;;;;;;;;;;;;;;5.08;100.00;100346.97;5064782;28;19975;-52
2021/11/04 03:26:31;;;;;;;;;;;;;;;5.11;100.00;100352.03;5067608;28;19971;-52
2021/11/04 03:28:58;;;;;;;;;;;;;;;5.13;100.00;100344.97;5050942;28;19960;-52
2021/11/04 03:31:24;;;;;;;;;;;;;;;5.03;100.00;100349.81;5067360;28;19971;-52
2021/11/04 03:33:51;;;;;;;;;;;;;;;5.06;100.00;100349.66;5067866;28;19925;-46
2021/11/04 03:36:18;;;;;;;;;;;;;;;5.11;100.00;100346.81;5067571;28;19943;-44
2021/11/04 03:38:46;;;;;;;;;;;;;;;5.16;100.00;100362.22;5067773;28;20354;-47
2021/11/04 03:41:12;;;;;;;;;;;;;;;5.14;100.00;100359.72;5051011;28;19929;-46
2021/11/04 03:43:39;;;;;;;;;;;;;;;5.16;100.00;100364.84;5050120;28;19929;-47
2021/11/04 03:46:06;;;;;;;;;;;;;;;5.12;100.00;100365.91;5052745;28;19924;-43
2021/11/04 03:48:34;;;;;;;;;;;;;;;5.19;100.00;100362.06;5056287;28;19928;-45
2021/11/04 03:51:01;;;;;;;;;;;;;;;5.27;100.00;100364.31;5055981;28;19929;-52
2021/11/04 03:53:28;;;;;;;;;;;;;;;5.28;100.00;100366.81;5068771;28;19936;-50
2021/11/04 03:55:54;;;;;;;;;;;;;;;5.21;100.00;100371.50;5053800;28;19931;-49
2021/11/04 03:58:21;;;;;;;;;;;;;;;5.27;100.00;100367.75;5055034;28;20299;-43
2021/11/04 04:00:48;;;;;;;;;;;;;;;5.37;100.00;100368.97;5055988;28;19975;-43
2021/11/04 04:03:14;;;;;;;;;;;;;;;5.39;100.00;100377.56;5055863;28;19925;-44
2021/11/04 04:05:41;;;;;;;;;;;;;;;5.43;100.00;100373.03;5071219;28;19925;-44
2021/11/04 04:08:08;;;;;;;;;;;;;;;5.44;100.00;100366.91;5056129;28;20292;-44
2021/11/04 04:10:34;;;;;;;;;;;;;;;5.43;100.00;100362.59;5071012;28;19929;-46
2021/11/04 04:13:01;;;;;;;;;;;;;;;5.39;100.00;100363.69;5055965;28;20380;-45
2021/11/04 04:15:28;;;;;;;;;;;;;;;5.45;100.00;100368.56;5053144;28;20642;-44
2021/11/04 04:17:55;;;;;;;;;;;;;;;5.37;100.00;100368.13;5050823;28;19935;-45
2021/11/04 04:20:22;;;;;;;;;;;;;;;5.40;100.00;100373.19;5053552;28;20427;-44
2021/11/04 04:22:48;;;;;;;;;;;;;;;5.40;100.00;100367.97;5055605;28;19925;-46
2021/11/04 04:25:15;;;;;;;;;;;;;;;5.41;100.00;100367.91;5055468;28;19925;-45
2021/11/04 04:27:42;;;;;;;;;;;;;;;5.43;100.00;100373.03;5054484;28;19932;-47
2021/11/04 04:30:08;;;;;;;;;;;;;;;5.40;100.00;100361.00;5052566;28;19925;-44
2021/11/04 04:32:35;;;;;;;;;;;;;;;5.43;100.00;100367.81;5054964;28;19928;-47
2021/11/04 04:35:02;;;;;;;;;;;;;;;5.50;100.00;100363.97;5055299;28;19932;-46
2021/11/04 04:37:28;;;;;;;;;;;;;;;5.40;100.00;100358.38;5054729;28;20358;-46
2021/11/04 04:39:55;;;;;;;;;;;;;;;5.43;100.00;100360.00;5053232;28;20304;-45
2021/11/04 04:42:22;;;;;;;;;;;;;;;5.47;100.00;100361.53;5053412;28;19925;-53
2021/11/04 04:44:50;;;;;;;;;;;;;;;5.51;100.00;100360.44;5054907;28;19970;-53
2021/11/04 04:47:17;;;;;;;;;;;;;;;5.50;100.00;100363.97;5055112;28;19925;-54
2021/11/04 04:49:43;;;;;;;;;;;;;;;5.54;100.00;100364.66;5054940;28;20384;-45
2021/11/04 04:52:10;;;;;;;;;;;;;;;5.50;100.00;100368.34;5054909;28;19975;-45
2021/11/04 04:54:37;;;;;;;;;;;;;;;5.44;100.00;100361.69;5052861;28;19964;-44
2021/11/04 04:57:03;;;;;;;;;;;;;;;5.51;100.00;100365.66;5051057;28;20035;-50
2021/11/04 04:59:30;;;;;;;;;;;;;;;5.58;100.00;100367.00;5053468;28;19932;-46
2021/11/04 05:01:57;;;;;;;;;;;;;;;5.59;100.00;100365.28;5050664;28;19925;-48
2021/11/04 05:04:23;;;;;;;;;;;;;;;5.62;100.00;100351.19;5052132;28;19931;-46
2021/11/04 05:06:50;;;;;;;;;;;;;;;5.60;100.00;100359.09;5053556;28;19924;-46
2021/11/04 05:09:17;;;;;;;;;;;;;;;5.57;100.00;100356.66;5054711;28;19924;-46
2021/11/04 05:11:43;;;;;;;;;;;;;;;5.57;100.00;100354.88;5051830;28;19928;-46
2021/11/04 05:14:10;;;;;;;;;;;;;;;5.64;100.00;100358.03;5051762;28;19987;-47
2021/11/04 05:16:36;;;;;;;;;;;;;;;5.63;100.00;100353.75;5054388;28;19955;-48
2021/11/04 05:19:04;;;;;;;;;;;;;;;5.67;100.00;100359.63;5054555;28;20410;-45
2021/11/04 05:21:31;;;;;;;;;;;;;;;5.70;100.00;100360.31;5054389;28;19967;-45
2021/11/04 05:23:57;;;;;;;;;;;;;;;5.69;100.00;100365.63;5053054;28;19924;-46
2021/11/04 05:26:24;;;;;;;;;;;;;;;5.64;100.00;100365.84;5051381;28;19928;-46
2021/11/04 05:28:51;;;;;;;;;;;;;;;5.63;100.00;100371.16;5053647;28;19979;-47
2021/11/04 05:31:17;;;;;;;;;;;;;;;5.65;100.00;100371.94;5054202;28;19979;-48
2021/11/04 05:33:44;;;;;;;;;;;;;;;5.66;100.00;100378.81;5053098;28;19924;-46
2021/11/04 05:36:10;;;;;;;;;;;;;;;5.65;100.00;100372.75;5053010;28;19928;-48
2021/11/04 05:38:37;;;;;;;;;;;;;;;5.68;100.00;100377.81;5051226;28;19971;-45
2021/11/04 05:41:04;;;;;;;;;;;;;;;5.70;100.00;100380.34;5068359;28;19975;-47
2021/11/04 05:43:30;;;;;;;;;;;;;;;5.66;100.00;100366.63;5052804;28;19929;-52
2021/11/04 05:45:57;;;;;;;;;;;;;;;5.71;100.00;100376.81;5053953;28;19925;-51
2021/11/04 05:48:24;;;;;;;;;;;;;;;5.71;100.00;100374.19;5052443;28;20418;-46
2021/11/04 05:50:50;;;;;;;;;;;;;;;5.71;100.00;100379.41;5051273;28;20067;-49
2021/11/04 05:53:17;;;;;;;;;;;;;;;5.70;100.00;100380.34;5052865;28;19971;-49
2021/11/04 05:55:44;;;;;;;;;;;;;;;5.72;100.00;100378.50;5053903;28;19928;-53
2021/11/04 05:58:10;;;;;;;;;;;;;;;5.72;100.00;100386.34;5053803;28;19929;-52
2021/11/04 06:00:37;;;;;;;;;;;;;;;5.72;100.00;100394.16;5051625;28;19998;-52
2021/11/04 06:03:04;;;;;;;;;;;;;;;5.70;100.00;100406.44;5049578;28;19928;-54
2021/11/04 06:05:30;;;;;;;;;;;;;;;5.66;100.00;100402.28;5053483;28;19928;-54
2021/11/04 06:07:57;;;;;;;;;;;;;;;5.68;100.00;100403.06;5053738;28;19950;-53
2021/11/04 06:10:24;;;;;;;;;;;;;;;5.68;100.00;100398.69;5053433;28;19929;-49
2021/11/04 06:12:50;;;;;;;;;;;;;;;5.66;100.00;100399.69;5053554;28;19924;-45
2021/11/04 06:15:17;;;;;;;;;;;;;;;5.66;100.00;100400.53;5053573;28;19924;-50
2021/11/04 06:17:43;;;;;;;;;;;;;;;5.65;100.00;100401.47;5053763;28;20380;-50
2021/11/04 06:20:10;;;;;;;;;;;;;;;5.65;100.00;100398.03;5052165;28;19955;-49
2021/11/04 06:22:37;;;;;;;;;;;;;;;5.65;100.00;100404.06;5050726;28;19925;-45
2021/11/04 06:25:04;;;;;;;;;;;;;;;5.73;100.00;100403.69;5052084;28;19925;-44
2021/11/04 06:27:31;;;;;;;;;;;;;;;5.70;100.00;100401.22;5052680;28;20307;-45
2021/11/04 06:29:57;;;;;;;;;;;;;;;5.68;100.00;100403.06;5050442;28;19975;-43
2021/11/04 06:32:24;;;;;;;;;;;;;;;5.62;100.00;100409.47;5049782;28;19928;-43
2021/11/04 06:34:51;;;;;;;;;;;;;;;5.62;100.00;100419.88;5053357;28;19924;-51
2021/11/04 06:37:17;;;;;;;;;;;;;;;5.59;100.00;100422.66;5053132;28;19983;-52
2021/11/04 06:39:46;;;;;;;;;;;;;;;5.59;100.00;100431.31;5052377;28;21587;-50
2021/11/04 06:42:12;;;;;;;;;;;;;;;5.63;100.00;100436.38;5035275;28;19929;-52
2021/11/04 06:44:39;;;;;;;;;;;;;;;5.58;100.00;100434.84;5053203;28;20414;-54
2021/11/04 06:47:06;;;;;;;;;;;;;;;5.64;100.00;100441.50;5053118;28;20019;-53
2021/11/04 06:49:33;;;;;;;;;;;;;;;5.62;100.00;100435.53;5068247;28;19929;-52
2021/11/04 06:52:00;;;;;;;;;;;;;;;5.49;100.00;100445.75;5052543;28;20311;-50
2021/11/04 06:54:26;;;;;;;;;;;;;;;5.51;100.00;100454.34;5067862;28;19924;-52
2021/11/04 06:56:54;;;;;;;;;;;;;;;5.50;100.00;100459.66;5052803;28;19929;-51
2021/11/04 06:59:25;;;;;;;;;;;;;;;5.51;100.00;100461.34;5064819;28;20133;-47
2021/11/04 07:01:54;;;;;;;;;;;;;;;5.46;100.00;100456.34;5049484;28;20296;-45
2021/11/04 07:04:24;;;;;;;;;;;;;;;5.49;100.00;100453.56;5052927;28;19975;-47
2021/11/04 07:07:00;;;;;;;;;;;;;;;5.55;100.00;100463.69;5051243;28;19975;-44
2021/11/04 07:09:30;;;;;;;;;;;;;;;5.60;100.00;100463.47;5050137;28;19925;-46
2021/11/04 07:11:57;;;;;;;;;;;;;;;5.61;100.00;100459.94;5050390;28;20253;-49
2021/11/04 07:14:28;;;;;;;;;;;;;;;5.67;100.00;100458.78;5051869;28;19975;-51
2021/11/04 07:16:55;;;;;;;;;;;;;;;5.69;100.00;100455.16;5052798;28;19925;-51
2021/11/04 07:19:23;;;;;;;;;;;;;;;5.68;100.00;100457.88;5050226;28;19925;-55
2021/11/04 07:22:01;;;;;;;;;;;;;;;5.68;100.00;100450.88;5051817;28;19936;-54
2021/11/04 07:24:47;;;;;;;;;;;;;;;5.63;100.00;100457.25;5072322;28;19999;-53
2021/11/04 07:27:15;;;;;;;;;;;;;;;5.62;100.00;100466.00;5056373;28;19937;-55
2021/11/04 07:29:44;;;;;;;;;;;;;;;5.66;100.00;100464.91;5054278;28;19987;-54
2021/11/04 07:32:15;;;;;;;;;;;;;;;5.63;100.00;100459.84;5050949;28;19929;-50
2021/11/04 07:34:43;;;;;;;;;;;;;;;5.58;100.00;100470.53;5055945;28;19929;-52
2021/11/04 07:37:11;;;;;;;;;;;;;;;5.62;100.00;100477.28;5069065;28;19925;-54
2021/11/04 07:39:39;;;;;;;;;;;;;;;5.68;100.00;100468.31;5070465;28;19925;-53
2021/11/04 07:42:07;;;;;;;;;;;;;;;5.70;100.00;100475.13;5071613;28;19925;-51
2021/11/04 07:44:35;;;;;;;;;;;;;;;5.74;100.00;100475.84;5054956;28;20311;-45
2021/11/04 07:47:03;;;;;;;;;;;;;;;5.72;100.00;100480.28;5056315;28;19970;-54
2021/11/04 07:49:31;;;;;;;;;;;;;;;5.76;100.00;100474.81;5056217;28;20418;-53
2021/11/04 07:52:00;;;;;;;;;;;;;;;5.74;100.00;100481.88;5053375;28;20288;-54
2021/11/04 07:54:30;;;;;;;;;;;;;;;5.75;100.00;100482.72;5053622;28;20395;-50
2021/11/04 07:56:57;;;;;;;;;;;;;;;5.79;100.00;100483.41;5055741;28;19947;-55
2021/11/04 07:59:26;;;;;;;;;;;;;;;5.86;100.00;100482.16;5071378;28;20352;-51
2021/11/04 08:01:53;;;;;;;;;;;;;;;5.88;100.00;100475.97;5055207;28;20206;-51
2021/11/04 08:04:19;;;;;;;;;;;;;;;5.85;100.00;100470.03;5052535;28;19939;-52
2021/11/04 08:06:46;;;;;;;;;;;;;;;5.82;100.00;100467.59;5054557;28;19924;-54
2021/11/04 08:09:13;;;;;;;;;;;;;;;5.86;100.00;100469.13;5069324;28;19975;-55
2021/11/04 08:11:39;;;;;;;;;;;;;;;5.91;100.00;100467.13;5052977;28;19925;-53
2021/11/04 08:14:06;;;;;;;;;;;;;;;5.88;100.00;100465.50;5055571;28;20399;-51
2021/11/04 08:16:33;;;;;;;;;;;;;;;5.95;100.00;100457.38;5066897;28;19929;-53
2021/11/04 08:19:00;;;;;;;;;;;;;;;5.88;100.00;100470.72;5053717;28;19925;-52
2021/11/04 08:21:26;;;;;;;;;;;;;;;5.93;100.00;100468.75;5055513;28;19929;-56
2021/11/04 08:23:53;;;;;;;;;;;;;;;5.93;100.00;100465.25;5055124;28;19929;-45
2021/11/04 08:26:19;;;;;;;;;;;;;;;5.95;100.00;100463.44;5052853;28;19928;-53
2021/11/04 08:28:46;;;;;;;;;;;;;;;5.99;100.00;100462.38;5052477;28;19931;-47
2021/11/04 08:31:13;;;;;;;;;;;;;;;5.97;100.00;100465.97;5053739;28;19925;-54
2021/11/04 08:33:40;;;;;;;;;;;;;;;6.07;100.00;100468.03;5052477;28;20388;-54
2021/11/04 08:36:06;;;;;;;;;;;;;;;6.14;100.00;100468.56;5052139;28;19986;-55
2021/11/04 08:38:33;;;;;;;;;;;;;;;6.20;100.00;100468.25;5054532;28;20446;-55
2021/11/04 08:41:00;;;;;;;;;;;;;;;6.30;100.00;100472.97;5052081;28;19998;-54
2021/11/04 08:43:27;;;;;;;;;;;;;;;6.36;100.00;100476.09;5052221;28;20304;-49
2021/11/04 08:45:54;;;;;;;;;;;;;;;6.36;100.00;100473.50;5053878;28;19925;-55
2021/11/04 08:48:21;;;;;;;;;;;;;;;6.38;100.00;100476.03;5050566;28;19956;-51
2021/11/04 08:50:48;;;;;;;;;;;;;;;6.39;100.00;100483.81;5054089;28;20299;-55
2021/11/04 08:53:16;;;;;;;;;;;;;;;6.49;100.00;100481.53;5068038;28;19924;-54
2021/11/04 08:55:42;;;;;;;;;;;;;;;6.53;100.00;100479.56;5052602;28;19962;-54
2021/11/04 08:58:09;;;;;;;;;;;;;;;6.56;100.00;100482.06;5054881;28;20330;-52
2021/11/04 09:00:36;;;;;;;;;;;;;;;6.63;100.00;100491.22;5054847;28;19974;-53
2021/11/04 09:03:03;;;;;;;;;;;;;;;6.75;100.00;100497.56;5069965;28;20303;-55
2021/11/04 09:05:30;;;;;;;;;;;;;;;6.83;100.00;100499.75;5054850;28;19971;-54
2021/11/04 09:07:57;;;;;;;;;;;;;;;6.83;100.00;100507.59;5054616;28;19971;-52
2021/11/04 09:10:23;;;;;;;;;;;;;;;6.85;100.00;100513.59;5054676;28;19980;-51
2021/11/04 09:12:50;;;;;;;;;;;;;;;6.93;100.00;100514.00;5054800;28;20322;-55
2021/11/04 09:15:16;;;;;;;;;;;;;;;7.10;100.00;100515.69;5036817;28;19925;-54
2021/11/04 09:17:43;;;;;;;;;;;;;;;7.16;100.00;100514.50;5054571;28;19928;-53
2021/11/04 09:20:11;;;;;;;;;;;;;;;7.12;100.00;100519.06;5054641;28;19924;-55
2021/11/04 09:22:43;;;;;;;;;;;;;;;7.20;100.00;100523.84;5054532;28;19925;-52
2021/11/04 09:25:09;;;;;;;;;;;;;;;7.24;100.00;100523.59;5069603;28;19925;-53
2021/11/04 09:27:36;;;;;;;;;;;;;;;7.36;100.00;100531.69;5053409;28;19974;-54
2021/11/04 09:30:03;;;;;;;;;;;;;;;7.35;100.00;100524.75;5051294;28;19928;-53
2021/11/04 09:32:30;;;;;;;;;;;;;;;7.42;100.00;100526.13;5052274;28;19928;-55
2021/11/04 09:34:57;;;;;;;;;;;;;;;7.54;100.00;100528.03;5054233;28;20023;-52
2021/11/04 09:37:23;;;;;;;;;;;;;;;7.59;100.00;100526.00;5054476;28;19932;-56
2021/11/04 09:39:51;;;;;;;;;;;;;;;7.60;99.89;100529.44;5052553;28;19970;-51
2021/11/04 09:42:18;;;;;;;;;;;;;;;7.57;100.00;100532.25;5049882;28;19931;-54
2021/11/04 09:44:45;;;;;;;;;;;;;;;7.58;100.00;100541.75;5050958;28;19925;-52
2021/11/04 09:47:11;;;;;;;;;;;;;;;7.60;100.00;100543.38;5052886;28;19924;-54
2021/11/04 09:49:38;;;;;;;;;;;;;;;7.65;100.00;100547.50;5054156;28;19986;-56
2021/11/04 09:52:05;;;;;;;;;;;;;;;7.75;100.00;100553.91;5053335;28;20052;-51
2021/11/04 09:54:32;;;;;;;;;;;;;;;7.78;99.86;100557.19;5050992;28;19929;-54
2021/11/04 09:56:59;;;;;;;;;;;;;;;7.83;100.00;100553.47;5052393;28;19970;-53
2021/11/04 09:59:25;;;;;;;;;;;;;;;7.87;99.89;100568.88;5053674;28;19932;-55
2021/11/04 10:01:52;;;;;;;;;;;;;;;7.82;98.73;100560.44;5069033;28;19924;-53
2021/11/04 10:04:31;;;;;;;;;;;;;;;7.83;98.81;100556.91;5053585;28;19928;-54
2021/11/04 10:06:57;;;;;;;;;;;;;;;7.89;98.24;100567.00;5068911;28;20280;-51
2021/11/04 10:09:27;;;;;;;;;;;;;;;7.97;97.81;100569.19;5053620;28;19979;-54
2021/11/04 10:11:55;;;;;;;;;;;;;;;8.02;98.17;100574.19;5053699;28;19932;-55
2021/11/04 10:14:21;;;;;;;;;;;;;;;8.05;97.51;100574.00;5053469;28;19979;-47
2021/11/04 10:16:48;;;;;;;;;;;;;;;7.95;97.13;100581.56;5047943;28;19936;-46
2021/11/04 10:19:16;;;;;;;;;;;;;;;7.95;97.48;100581.56;5050596;28;19925;-46
2021/11/04 10:21:47;;;;;;;;;;;;;;;7.99;97.71;100587.44;5068693;28;20584;-47
2021/11/04 10:24:15;;;;;;;;;;;;;;;7.96;98.60;100583.22;5053335;28;20364;-47
2021/11/04 10:26:41;;;;;;;;;;;;;;;7.94;98.46;100583.31;5053548;28;19971;-46
2021/11/04 10:29:09;;;;;;;;;;;;;;;7.92;99.33;100576.47;5051595;28;19925;-47
2021/11/04 10:31:37;;;;;;;;;;;;;;;7.87;99.54;100570.69;5048509;28;19932;-47
2021/11/04 10:34:05;;;;;;;;;;;;;;;7.93;99.04;100579.03;5049258;28;19925;-50
2021/11/04 10:36:32;;;;;;;;;;;;;;;7.83;99.11;100577.03;5052974;28;20015;-50
2021/11/04 10:38:59;;;;;;;;;;;;;;;7.87;99.34;100587.22;5052192;28;20022;-47
2021/11/04 10:41:28;;;;;;;;;;;;;;;7.91;98.99;100586.09;5051424;28;19924;-48
2021/11/04 10:43:56;;;;;;;;;;;;;;;7.97;98.68;100590.13;5052613;28;19928;-44
2021/11/04 10:46:24;;;;;;;;;;;;;;;7.98;98.41;100585.75;5052916;28;19975;-46
2021/11/04 10:49:01;;;;;;;;;;;;;;;7.78;98.39;100587.75;5068149;28;19928;-47
2021/11/04 10:51:28;;;;;;;;;;;;;;;7.79;98.53;100590.28;5051481;28;19932;-46
2021/11/04 10:54:00;;;;;;;;;;;;;;;8.01;98.30;100593.44;5050669;28;19928;-46
2021/11/04 10:56:28;;;;;;;;;;;;;;;8.14;97.67;100591.78;5051881;28;19924;-47
2021/11/04 10:59:19;;;;;;;;;;;;;;;8.27;97.79;100592.72;5065753;28;20359;-47
2021/11/04 11:01:46;;;;;;;;;;;;;;;8.28;97.10;100599.66;5051604;28;19925;-47
2021/11/04 11:04:14;;;;;;;;;;;;;;;8.34;96.75;100595.00;5052719;28;19929;-45
2021/11/04 11:06:42;;;;;;;;;;;;;;;8.44;96.42;100594.34;5049176;28;19929;-43
2021/11/04 11:09:18;;;;;;;;;;;;;;;8.55;95.13;100591.13;5049830;28;19932;-47
2021/11/04 11:11:52;;;;;;;;;;;;;;;8.62;95.81;100592.41;5067838;28;19925;-44
2021/11/04 11:14:21;;;;;;;;;;;;;;;8.63;95.57;100601.16;5052757;28;19925;-46
2021/11/04 11:16:51;;;;;;;;;;;;;;;8.69;95.93;100605.16;5067954;28;19929;-45
2021/11/04 11:19:22;;;;;;;;;;;;;;;8.79;95.57;100616.75;5068030;28;19948;-46
2021/11/04 11:21:51;;;;;;;;;;;;;;;8.75;93.92;100612.66;5068048;28;20338;-47
2021/11/04 11:24:23;;;;;;;;;;;;;;;8.82;94.40;100608.72;5052425;28;19979;-46
2021/11/04 11:26:50;;;;;;;;;;;;;;;8.79;95.03;100614.13;5052202;28;19932;-50
2021/11/04 11:29:16;;;;;;;;;;;;;;;8.80;94.23;100621.91;5052050;28;20050;-48
2021/11/04 11:31:47;;;;;;;;;;;;;;;8.85;94.42;100628.66;5067820;28;19929;-45
2021/11/04 11:34:18;;;;;;;;;;;;;;;8.99;94.27;100630.44;5067882;28;19983;-47
2021/11/04 11:37:04;;;;;;;;;;;;;;;8.84;93.74;100627.81;5051729;28;19925;-53
2021/11/04 11:39:43;;;;;;;;;;;;;;;8.80;95.01;100627.16;5050224;28;19925;-53
2021/11/04 11:42:11;;;;;;;;;;;;;;;9.02;94.88;100617.13;5051864;28;19925;-54
2021/11/04 11:44:56;;;;;;;;;;;;;;;8.95;95.93;100629.78;5067684;28;19928;-52
2021/11/04 11:47:30;;;;;;;;;;;;;;;8.92;94.27;100629.97;5051196;28;19990;-52
2021/11/04 11:50:15;;;;;;;;;;;;;;;8.92;95.38;100636.06;5052520;28;19924;-52
2021/11/04 11:52:43;;;;;;;;;;;;;;;8.96;95.10;100632.31;5052209;28;20023;-53
2021/11/04 11:55:11;;;;;;;;;;;;;;;8.94;95.51;100633.34;5064778;28;19932;-54
2021/11/04 11:57:38;;;;;;;;;;;;;;;9.02;95.70;100635.50;5065351;28;20350;-53
2021/11/04 12:00:09;;;;;;;;;;;;;;;9.07;94.92;100628.19;5052391;28;19924;-53
2021/11/04 12:02:39;;;;;;;;;;;;;;;9.05;94.37;100622.19;5052455;28;19925;-52
2021/11/04 12:05:29;;;;;;;;;;;;;;;9.09;94.32;100621.06;5049739;28;19925;-52
2021/11/04 12:07:57;;;;;;;;;;;;;;;9.10;94.03;100625.38;5052441;28;20406;-54
2021/11/04 12:10:30;;;;;;;;;;;;;;;9.20;94.18;100623.00;5070425;28;20371;-54
2021/11/04 12:12:59;;;;;;;;;;;;;;;9.34;93.35;100625.63;5055998;28;19925;-48
2021/11/04 12:15:26;;;;;;;;;;;;;;;9.42;93.29;100623.34;5054517;28;20354;-45
2021/11/04 12:18:11;;;;;;;;;;;;;;;9.51;92.92;100626.31;5055067;28;20379;-46
2021/11/04 12:20:47;;;;;;;;;;;;;;;9.52;92.47;100636.72;5052940;28;19925;-45
2021/11/04 12:23:14;;;;;;;;;;;;;;;9.55;92.31;100633.88;5054650;28;19928;-54
2021/11/04 12:25:41;;;;;;;;;;;;;;;9.59;90.85;100635.38;5055459;28;19971;-54
2021/11/04 12:28:07;;;;;;;;;;;;;;;9.61;91.24;100636.13;5053151;28;19925;-45
2021/11/04 12:30:34;;;;;;;;;;;;;;;9.65;91.40;100642.00;5053059;28;20303;-54
2021/11/04 12:33:02;;;;;;;;;;;;;;;9.61;91.56;100643.16;5054407;28;19975;-47
2021/11/04 12:35:44;;;;;;;;;;;;;;;9.68;90.84;100651.47;5052806;28;20372;-44
2021/11/04 12:38:36;;;;;;;;;;;;;;;9.67;91.95;100648.03;5054465;28;19925;-44
2021/11/04 12:41:04;;;;;;;;;;;;;;;9.69;91.92;100645.28;5055368;28;19943;-46
2021/11/04 12:43:32;;;;;;;;;;;;;;;9.78;91.56;100647.34;5055213;28;19925;-46